<?xml version="1.0" encoding="utf-8"?>
<gpx xmlns:xsi="http://www.w3.org/2001/XMLSchema-instance" xmlns:xsd="http://www.w3.org/2001/XMLSchema" version="1.1" creator="Shapelink.com" xmlns="http://www.topografix.com/GPX/1/1" xmlns:gpxtpx="http://www.garmin.com/xmlschemas/TrackPointExtension/v1">
  <metadata>
    <name>Løping 3.81 km, 2012-08-28</name>
    <desc></desc>
    <author><name>Mikael Blom</name></author> 
    <time>2012-08-28T20:31:45Z</time>
  </metadata>
  <trk>
    <name>Løping 3.81 km, 2012-08-28</name>
    <trkseg>
      <trkpt lat="59.9788424" lon="17.7393523">
        <ele>35.2255</ele>
        <time>2012-08-28T20:31:45Z</time>
      </trkpt>
      <trkpt lat="59.9786347" lon="17.7393112">
        <ele>37.6287</ele>
        <time>2012-08-28T20:31:51Z</time>
      </trkpt>
      <trkpt lat="59.978531" lon="17.7393108">
        <ele>40.0321</ele>
        <time>2012-08-28T20:31:55Z</time>
      </trkpt>
      <trkpt lat="59.9783311" lon="17.7394352">
        <ele>37.6287</ele>
        <time>2012-08-28T20:32:03Z</time>
      </trkpt>
      <trkpt lat="59.97819" lon="17.7394339">
        <ele>37.6287</ele>
        <time>2012-08-28T20:32:08Z</time>
      </trkpt>
      <trkpt lat="59.9780751" lon="17.7394355">
        <ele>37.1481</ele>
        <time>2012-08-28T20:32:13Z</time>
      </trkpt>
      <trkpt lat="59.9779204" lon="17.7392108">
        <ele>36.1868</ele>
        <time>2012-08-28T20:32:20Z</time>
      </trkpt>
      <trkpt lat="59.9777908" lon="17.7391765">
        <ele>36.6675</ele>
        <time>2012-08-28T20:32:26Z</time>
      </trkpt>
      <trkpt lat="59.9776693" lon="17.7391311">
        <ele>32.8223</ele>
        <time>2012-08-28T20:32:31Z</time>
      </trkpt>
      <trkpt lat="59.9775904" lon="17.7391735">
        <ele>31.3801</ele>
        <time>2012-08-28T20:32:35Z</time>
      </trkpt>
      <trkpt lat="59.9774381" lon="17.7392715">
        <ele>29.4575</ele>
        <time>2012-08-28T20:32:42Z</time>
      </trkpt>
      <trkpt lat="59.977267" lon="17.7393168">
        <ele>30.8995</ele>
        <time>2012-08-28T20:32:49Z</time>
      </trkpt>
      <trkpt lat="59.9771324" lon="17.7394108">
        <ele>31.8607</ele>
        <time>2012-08-28T20:32:55Z</time>
      </trkpt>
      <trkpt lat="59.9769771" lon="17.7395403">
        <ele>30.8995</ele>
        <time>2012-08-28T20:33:02Z</time>
      </trkpt>
      <trkpt lat="59.9769557" lon="17.7395496">
        <ele>29.4575</ele>
        <time>2012-08-28T20:33:03Z</time>
      </trkpt>
      <trkpt lat="59.9767789" lon="17.7395196">
        <ele>27.5349</ele>
        <time>2012-08-28T20:33:10Z</time>
      </trkpt>
      <trkpt lat="59.9767051" lon="17.7395399">
        <ele>27.5349</ele>
        <time>2012-08-28T20:33:13Z</time>
      </trkpt>
      <trkpt lat="59.9765841" lon="17.7396903">
        <ele>28.4962</ele>
        <time>2012-08-28T20:33:19Z</time>
      </trkpt>
      <trkpt lat="59.9764389" lon="17.7398722">
        <ele>29.9381</ele>
        <time>2012-08-28T20:33:26Z</time>
      </trkpt>
      <trkpt lat="59.97635" lon="17.7400609">
        <ele>29.4575</ele>
        <time>2012-08-28T20:33:31Z</time>
      </trkpt>
      <trkpt lat="59.9763005" lon="17.7402235">
        <ele>28.9769</ele>
        <time>2012-08-28T20:33:35Z</time>
      </trkpt>
      <trkpt lat="59.9762192" lon="17.7403945">
        <ele>30.4188</ele>
        <time>2012-08-28T20:33:40Z</time>
      </trkpt>
      <trkpt lat="59.9761248" lon="17.7406378">
        <ele>29.9381</ele>
        <time>2012-08-28T20:33:47Z</time>
      </trkpt>
      <trkpt lat="59.9760581" lon="17.7408708">
        <ele>30.4188</ele>
        <time>2012-08-28T20:33:53Z</time>
      </trkpt>
      <trkpt lat="59.976014" lon="17.7410752">
        <ele>29.4575</ele>
        <time>2012-08-28T20:33:58Z</time>
      </trkpt>
      <trkpt lat="59.9759342" lon="17.7412843">
        <ele>28.0155</ele>
        <time>2012-08-28T20:34:05Z</time>
      </trkpt>
      <trkpt lat="59.9758523" lon="17.7415606">
        <ele>27.5349</ele>
        <time>2012-08-28T20:34:12Z</time>
      </trkpt>
      <trkpt lat="59.975795" lon="17.7418065">
        <ele>29.9381</ele>
        <time>2012-08-28T20:34:18Z</time>
      </trkpt>
      <trkpt lat="59.9757274" lon="17.7421019">
        <ele>31.3801</ele>
        <time>2012-08-28T20:34:25Z</time>
      </trkpt>
      <trkpt lat="59.975666" lon="17.7423555">
        <ele>33.3029</ele>
        <time>2012-08-28T20:34:31Z</time>
      </trkpt>
      <trkpt lat="59.9755851" lon="17.7426374">
        <ele>34.7449</ele>
        <time>2012-08-28T20:34:38Z</time>
      </trkpt>
      <trkpt lat="59.9755235" lon="17.7428403">
        <ele>36.1868</ele>
        <time>2012-08-28T20:34:43Z</time>
      </trkpt>
      <trkpt lat="59.9754522" lon="17.7430962">
        <ele>36.1868</ele>
        <time>2012-08-28T20:34:49Z</time>
      </trkpt>
      <trkpt lat="59.9753867" lon="17.7433078">
        <ele>36.6675</ele>
        <time>2012-08-28T20:34:54Z</time>
      </trkpt>
      <trkpt lat="59.9753383" lon="17.7435389">
        <ele>36.6675</ele>
        <time>2012-08-28T20:34:59Z</time>
      </trkpt>
      <trkpt lat="59.9752935" lon="17.7438199">
        <ele>36.1868</ele>
        <time>2012-08-28T20:35:05Z</time>
      </trkpt>
      <trkpt lat="59.9752529" lon="17.7441112">
        <ele>36.1868</ele>
        <time>2012-08-28T20:35:11Z</time>
      </trkpt>
      <trkpt lat="59.9752069" lon="17.7443651">
        <ele>36.1868</ele>
        <time>2012-08-28T20:35:16Z</time>
      </trkpt>
      <trkpt lat="59.975157" lon="17.7445782">
        <ele>36.1868</ele>
        <time>2012-08-28T20:35:21Z</time>
      </trkpt>
      <trkpt lat="59.9750924" lon="17.7447854">
        <ele>35.7061</ele>
        <time>2012-08-28T20:35:26Z</time>
      </trkpt>
      <trkpt lat="59.9749909" lon="17.7450425">
        <ele>34.2642</ele>
        <time>2012-08-28T20:35:32Z</time>
      </trkpt>
      <trkpt lat="59.9749325" lon="17.7452026">
        <ele>33.3029</ele>
        <time>2012-08-28T20:35:36Z</time>
      </trkpt>
      <trkpt lat="59.9748764" lon="17.745371">
        <ele>34.2642</ele>
        <time>2012-08-28T20:35:40Z</time>
      </trkpt>
      <trkpt lat="59.9747956" lon="17.7455868">
        <ele>34.7449</ele>
        <time>2012-08-28T20:35:45Z</time>
      </trkpt>
      <trkpt lat="59.9746696" lon="17.7458728">
        <ele>34.7449</ele>
        <time>2012-08-28T20:35:52Z</time>
      </trkpt>
      <trkpt lat="59.9745708" lon="17.7460426">
        <ele>35.7061</ele>
        <time>2012-08-28T20:35:57Z</time>
      </trkpt>
      <trkpt lat="59.9744681" lon="17.7462578">
        <ele>35.2255</ele>
        <time>2012-08-28T20:36:03Z</time>
      </trkpt>
      <trkpt lat="59.9743554" lon="17.7464065">
        <ele>32.8223</ele>
        <time>2012-08-28T20:36:09Z</time>
      </trkpt>
      <trkpt lat="59.9742577" lon="17.7465344">
        <ele>30.8995</ele>
        <time>2012-08-28T20:36:14Z</time>
      </trkpt>
      <trkpt lat="59.9741257" lon="17.7466888">
        <ele>31.3801</ele>
        <time>2012-08-28T20:36:20Z</time>
      </trkpt>
      <trkpt lat="59.9739985" lon="17.7468495">
        <ele>30.8995</ele>
        <time>2012-08-28T20:36:26Z</time>
      </trkpt>
      <trkpt lat="59.9738476" lon="17.7470358">
        <ele>30.4188</ele>
        <time>2012-08-28T20:36:33Z</time>
      </trkpt>
      <trkpt lat="59.9737119" lon="17.7471934">
        <ele>28.9769</ele>
        <time>2012-08-28T20:36:39Z</time>
      </trkpt>
      <trkpt lat="59.9735777" lon="17.7473477">
        <ele>28.0155</ele>
        <time>2012-08-28T20:36:45Z</time>
      </trkpt>
      <trkpt lat="59.9734634" lon="17.7474514">
        <ele>27.0543</ele>
        <time>2012-08-28T20:36:50Z</time>
      </trkpt>
      <trkpt lat="59.9733172" lon="17.7475853">
        <ele>26.5736</ele>
        <time>2012-08-28T20:36:56Z</time>
      </trkpt>
      <trkpt lat="59.9731656" lon="17.7477533">
        <ele>24.1703</ele>
        <time>2012-08-28T20:37:03Z</time>
      </trkpt>
      <trkpt lat="59.9730686" lon="17.7479057">
        <ele>22.7283</ele>
        <time>2012-08-28T20:37:08Z</time>
      </trkpt>
      <trkpt lat="59.9729454" lon="17.7480704">
        <ele>22.2476</ele>
        <time>2012-08-28T20:37:14Z</time>
      </trkpt>
      <trkpt lat="59.9728132" lon="17.7483388">
        <ele>21.2864</ele>
        <time>2012-08-28T20:37:21Z</time>
      </trkpt>
      <trkpt lat="59.9727987" lon="17.7483729">
        <ele>20.8057</ele>
        <time>2012-08-28T20:37:22Z</time>
      </trkpt>
      <trkpt lat="59.9727058" lon="17.7485837">
        <ele>24.1703</ele>
        <time>2012-08-28T20:37:27Z</time>
      </trkpt>
      <trkpt lat="59.972575" lon="17.7488519">
        <ele>28.4962</ele>
        <time>2012-08-28T20:37:34Z</time>
      </trkpt>
      <trkpt lat="59.9724768" lon="17.7490772">
        <ele>27.5349</ele>
        <time>2012-08-28T20:37:40Z</time>
      </trkpt>
      <trkpt lat="59.9723895" lon="17.7492896">
        <ele>24.651</ele>
        <time>2012-08-28T20:37:46Z</time>
      </trkpt>
      <trkpt lat="59.9722973" lon="17.7495157">
        <ele>19.8444</ele>
        <time>2012-08-28T20:37:53Z</time>
      </trkpt>
      <trkpt lat="59.9722337" lon="17.7496846">
        <ele>19.3638</ele>
        <time>2012-08-28T20:37:58Z</time>
      </trkpt>
      <trkpt lat="59.972157" lon="17.7498938">
        <ele>14.0764</ele>
        <time>2012-08-28T20:38:04Z</time>
      </trkpt>
      <trkpt lat="59.972065" lon="17.7501459">
        <ele>10.2312</ele>
        <time>2012-08-28T20:38:11Z</time>
      </trkpt>
      <trkpt lat="59.9719405" lon="17.7504118">
        <ele>8.30859</ele>
        <time>2012-08-28T20:38:18Z</time>
      </trkpt>
      <trkpt lat="59.9717974" lon="17.7506346">
        <ele>6.86646</ele>
        <time>2012-08-28T20:38:25Z</time>
      </trkpt>
      <trkpt lat="59.971736" lon="17.7507193">
        <ele>6.86646</ele>
        <time>2012-08-28T20:38:28Z</time>
      </trkpt>
      <trkpt lat="59.9715969" lon="17.7508568">
        <ele>9.2699</ele>
        <time>2012-08-28T20:38:34Z</time>
      </trkpt>
      <trkpt lat="59.9714854" lon="17.7510173">
        <ele>12.1538</ele>
        <time>2012-08-28T20:38:39Z</time>
      </trkpt>
      <trkpt lat="59.9714392" lon="17.7510914">
        <ele>12.6344</ele>
        <time>2012-08-28T20:38:41Z</time>
      </trkpt>
      <trkpt lat="59.9713193" lon="17.7512567">
        <ele>14.557</ele>
        <time>2012-08-28T20:38:46Z</time>
      </trkpt>
      <trkpt lat="59.9711923" lon="17.7514124">
        <ele>15.0377</ele>
        <time>2012-08-28T20:38:52Z</time>
      </trkpt>
      <trkpt lat="59.9710939" lon="17.7515425">
        <ele>13.5958</ele>
        <time>2012-08-28T20:38:57Z</time>
      </trkpt>
      <trkpt lat="59.9709941" lon="17.751701">
        <ele>15.0377</ele>
        <time>2012-08-28T20:39:02Z</time>
      </trkpt>
      <trkpt lat="59.9709515" lon="17.7517628">
        <ele>16.4797</ele>
        <time>2012-08-28T20:39:04Z</time>
      </trkpt>
      <trkpt lat="59.9708516" lon="17.7519532">
        <ele>18.4023</ele>
        <time>2012-08-28T20:39:09Z</time>
      </trkpt>
      <trkpt lat="59.9707382" lon="17.7521124">
        <ele>19.3638</ele>
        <time>2012-08-28T20:39:14Z</time>
      </trkpt>
      <trkpt lat="59.9706717" lon="17.7522145">
        <ele>20.325</ele>
        <time>2012-08-28T20:39:17Z</time>
      </trkpt>
      <trkpt lat="59.9705522" lon="17.75246">
        <ele>20.325</ele>
        <time>2012-08-28T20:39:23Z</time>
      </trkpt>
      <trkpt lat="59.9704683" lon="17.7526329">
        <ele>21.767</ele>
        <time>2012-08-28T20:39:28Z</time>
      </trkpt>
      <trkpt lat="59.9704015" lon="17.7528112">
        <ele>21.2864</ele>
        <time>2012-08-28T20:39:33Z</time>
      </trkpt>
      <trkpt lat="59.9703247" lon="17.7530303">
        <ele>20.8057</ele>
        <time>2012-08-28T20:39:38Z</time>
      </trkpt>
      <trkpt lat="59.9702537" lon="17.7532482">
        <ele>21.767</ele>
        <time>2012-08-28T20:39:43Z</time>
      </trkpt>
      <trkpt lat="59.9702018" lon="17.7534177">
        <ele>22.7283</ele>
        <time>2012-08-28T20:39:47Z</time>
      </trkpt>
      <trkpt lat="59.9701334" lon="17.75363">
        <ele>22.7283</ele>
        <time>2012-08-28T20:39:52Z</time>
      </trkpt>
      <trkpt lat="59.9700572" lon="17.7538247">
        <ele>22.7283</ele>
        <time>2012-08-28T20:39:57Z</time>
      </trkpt>
      <trkpt lat="59.9699662" lon="17.7540027">
        <ele>23.209</ele>
        <time>2012-08-28T20:40:02Z</time>
      </trkpt>
      <trkpt lat="59.9698823" lon="17.754169">
        <ele>24.1703</ele>
        <time>2012-08-28T20:40:06Z</time>
      </trkpt>
      <trkpt lat="59.9698045" lon="17.7543246">
        <ele>23.6896</ele>
        <time>2012-08-28T20:40:10Z</time>
      </trkpt>
      <trkpt lat="59.9697374" lon="17.7544697">
        <ele>25.1317</ele>
        <time>2012-08-28T20:40:14Z</time>
      </trkpt>
      <trkpt lat="59.9696383" lon="17.7546562">
        <ele>27.5349</ele>
        <time>2012-08-28T20:40:19Z</time>
      </trkpt>
      <trkpt lat="59.9695431" lon="17.7547991">
        <ele>29.4575</ele>
        <time>2012-08-28T20:40:23Z</time>
      </trkpt>
      <trkpt lat="59.9694373" lon="17.7549682">
        <ele>30.4188</ele>
        <time>2012-08-28T20:40:28Z</time>
      </trkpt>
      <trkpt lat="59.9693575" lon="17.7551256">
        <ele>31.3801</ele>
        <time>2012-08-28T20:40:32Z</time>
      </trkpt>
      <trkpt lat="59.9692845" lon="17.755278">
        <ele>31.3801</ele>
        <time>2012-08-28T20:40:36Z</time>
      </trkpt>
      <trkpt lat="59.9691989" lon="17.7554541">
        <ele>31.8607</ele>
        <time>2012-08-28T20:40:41Z</time>
      </trkpt>
      <trkpt lat="59.9691395" lon="17.7555882">
        <ele>32.3416</ele>
        <time>2012-08-28T20:40:45Z</time>
      </trkpt>
      <trkpt lat="59.9690685" lon="17.7557571">
        <ele>32.3416</ele>
        <time>2012-08-28T20:40:50Z</time>
      </trkpt>
      <trkpt lat="59.9689992" lon="17.7559035">
        <ele>31.8607</ele>
        <time>2012-08-28T20:40:54Z</time>
      </trkpt>
      <trkpt lat="59.9688876" lon="17.7561361">
        <ele>32.8223</ele>
        <time>2012-08-28T20:41:00Z</time>
      </trkpt>
      <trkpt lat="59.968837" lon="17.756242">
        <ele>33.3029</ele>
        <time>2012-08-28T20:41:03Z</time>
      </trkpt>
      <trkpt lat="59.9688225" lon="17.7562647">
        <ele>33.3029</ele>
        <time>2012-08-28T20:41:04Z</time>
      </trkpt>
      <trkpt lat="59.968863" lon="17.7561041">
        <ele>28.4962</ele>
        <time>2012-08-28T20:41:08Z</time>
      </trkpt>
      <trkpt lat="59.968982" lon="17.7559183">
        <ele>27.0543</ele>
        <time>2012-08-28T20:41:13Z</time>
      </trkpt>
      <trkpt lat="59.969102" lon="17.7557079">
        <ele>26.5736</ele>
        <time>2012-08-28T20:41:19Z</time>
      </trkpt>
      <trkpt lat="59.96921" lon="17.7555027">
        <ele>28.0155</ele>
        <time>2012-08-28T20:41:25Z</time>
      </trkpt>
      <trkpt lat="59.9693335" lon="17.7552847">
        <ele>28.0155</ele>
        <time>2012-08-28T20:41:32Z</time>
      </trkpt>
      <trkpt lat="59.9694549" lon="17.7550418">
        <ele>29.9381</ele>
        <time>2012-08-28T20:41:39Z</time>
      </trkpt>
      <trkpt lat="59.9695407" lon="17.7548774">
        <ele>31.3801</ele>
        <time>2012-08-28T20:41:44Z</time>
      </trkpt>
      <trkpt lat="59.9696628" lon="17.7546522">
        <ele>32.8223</ele>
        <time>2012-08-28T20:41:51Z</time>
      </trkpt>
      <trkpt lat="59.9697454" lon="17.7544831">
        <ele>34.7449</ele>
        <time>2012-08-28T20:41:56Z</time>
      </trkpt>
      <trkpt lat="59.9698322" lon="17.7543252">
        <ele>34.7449</ele>
        <time>2012-08-28T20:42:01Z</time>
      </trkpt>
      <trkpt lat="59.9698818" lon="17.7542342">
        <ele>34.2642</ele>
        <time>2012-08-28T20:42:04Z</time>
      </trkpt>
      <trkpt lat="59.9699445" lon="17.7541198">
        <ele>35.2255</ele>
        <time>2012-08-28T20:42:08Z</time>
      </trkpt>
      <trkpt lat="59.9700242" lon="17.7539574">
        <ele>35.7061</ele>
        <time>2012-08-28T20:42:13Z</time>
      </trkpt>
      <trkpt lat="59.9700984" lon="17.7538104">
        <ele>37.6287</ele>
        <time>2012-08-28T20:42:18Z</time>
      </trkpt>
      <trkpt lat="59.9701563" lon="17.7536624">
        <ele>37.6287</ele>
        <time>2012-08-28T20:42:22Z</time>
      </trkpt>
      <trkpt lat="59.9702423" lon="17.7534728">
        <ele>37.1481</ele>
        <time>2012-08-28T20:42:28Z</time>
      </trkpt>
      <trkpt lat="59.9702858" lon="17.7533602">
        <ele>36.6675</ele>
        <time>2012-08-28T20:42:31Z</time>
      </trkpt>
      <trkpt lat="59.9703636" lon="17.7532033">
        <ele>36.1868</ele>
        <time>2012-08-28T20:42:36Z</time>
      </trkpt>
      <trkpt lat="59.9704431" lon="17.7529686">
        <ele>35.2255</ele>
        <time>2012-08-28T20:42:42Z</time>
      </trkpt>
      <trkpt lat="59.9705085" lon="17.7527785">
        <ele>35.2255</ele>
        <time>2012-08-28T20:42:47Z</time>
      </trkpt>
      <trkpt lat="59.9705726" lon="17.7526107">
        <ele>34.2642</ele>
        <time>2012-08-28T20:42:51Z</time>
      </trkpt>
      <trkpt lat="59.970656" lon="17.7524367">
        <ele>34.2642</ele>
        <time>2012-08-28T20:42:56Z</time>
      </trkpt>
      <trkpt lat="59.9707199" lon="17.7522792">
        <ele>34.7449</ele>
        <time>2012-08-28T20:43:00Z</time>
      </trkpt>
      <trkpt lat="59.9707385" lon="17.7522507">
        <ele>34.7449</ele>
        <time>2012-08-28T20:43:01Z</time>
      </trkpt>
      <trkpt lat="59.9708422" lon="17.7520849">
        <ele>36.6675</ele>
        <time>2012-08-28T20:43:07Z</time>
      </trkpt>
      <trkpt lat="59.9709504" lon="17.7519534">
        <ele>36.6675</ele>
        <time>2012-08-28T20:43:13Z</time>
      </trkpt>
      <trkpt lat="59.9710749" lon="17.7517863">
        <ele>36.1868</ele>
        <time>2012-08-28T20:43:20Z</time>
      </trkpt>
      <trkpt lat="59.971189" lon="17.7516037">
        <ele>35.2255</ele>
        <time>2012-08-28T20:43:27Z</time>
      </trkpt>
      <trkpt lat="59.9712638" lon="17.7513546">
        <ele>32.8223</ele>
        <time>2012-08-28T20:43:33Z</time>
      </trkpt>
      <trkpt lat="59.9713518" lon="17.7512214">
        <ele>31.8607</ele>
        <time>2012-08-28T20:43:38Z</time>
      </trkpt>
      <trkpt lat="59.9714502" lon="17.7511115">
        <ele>31.8607</ele>
        <time>2012-08-28T20:43:43Z</time>
      </trkpt>
      <trkpt lat="59.9715902" lon="17.750961">
        <ele>32.3416</ele>
        <time>2012-08-28T20:43:50Z</time>
      </trkpt>
      <trkpt lat="59.9717052" lon="17.7508037">
        <ele>33.3029</ele>
        <time>2012-08-28T20:43:56Z</time>
      </trkpt>
      <trkpt lat="59.9718113" lon="17.7506872">
        <ele>34.2642</ele>
        <time>2012-08-28T20:44:01Z</time>
      </trkpt>
      <trkpt lat="59.971901" lon="17.7505511">
        <ele>35.2255</ele>
        <time>2012-08-28T20:44:06Z</time>
      </trkpt>
      <trkpt lat="59.9719866" lon="17.7503901">
        <ele>36.1868</ele>
        <time>2012-08-28T20:44:11Z</time>
      </trkpt>
      <trkpt lat="59.9720812" lon="17.7502118">
        <ele>36.1868</ele>
        <time>2012-08-28T20:44:17Z</time>
      </trkpt>
      <trkpt lat="59.9721604" lon="17.7499994">
        <ele>35.7061</ele>
        <time>2012-08-28T20:44:23Z</time>
      </trkpt>
      <trkpt lat="59.9721999" lon="17.7498917">
        <ele>34.2642</ele>
        <time>2012-08-28T20:44:26Z</time>
      </trkpt>
      <trkpt lat="59.9722549" lon="17.7496255">
        <ele>32.3416</ele>
        <time>2012-08-28T20:44:32Z</time>
      </trkpt>
      <trkpt lat="59.9723343" lon="17.7493779">
        <ele>28.0155</ele>
        <time>2012-08-28T20:44:39Z</time>
      </trkpt>
      <trkpt lat="59.9723999" lon="17.749211">
        <ele>25.6123</ele>
        <time>2012-08-28T20:44:44Z</time>
      </trkpt>
      <trkpt lat="59.9724888" lon="17.7489985">
        <ele>26.0929</ele>
        <time>2012-08-28T20:44:50Z</time>
      </trkpt>
      <trkpt lat="59.9725821" lon="17.74881">
        <ele>24.1703</ele>
        <time>2012-08-28T20:44:56Z</time>
      </trkpt>
      <trkpt lat="59.9726572" lon="17.7486324">
        <ele>22.7283</ele>
        <time>2012-08-28T20:45:01Z</time>
      </trkpt>
      <trkpt lat="59.9726887" lon="17.7485785">
        <ele>23.209</ele>
        <time>2012-08-28T20:45:03Z</time>
      </trkpt>
      <trkpt lat="59.972753" lon="17.7484449">
        <ele>24.1703</ele>
        <time>2012-08-28T20:45:07Z</time>
      </trkpt>
      <trkpt lat="59.9727951" lon="17.7483251">
        <ele>25.1317</ele>
        <time>2012-08-28T20:45:10Z</time>
      </trkpt>
      <trkpt lat="59.9729133" lon="17.7481288">
        <ele>27.5349</ele>
        <time>2012-08-28T20:45:16Z</time>
      </trkpt>
      <trkpt lat="59.9730804" lon="17.747901">
        <ele>28.0155</ele>
        <time>2012-08-28T20:45:24Z</time>
      </trkpt>
      <trkpt lat="59.9732106" lon="17.7477524">
        <ele>28.4962</ele>
        <time>2012-08-28T20:45:30Z</time>
      </trkpt>
      <trkpt lat="59.9733334" lon="17.7476097">
        <ele>26.5736</ele>
        <time>2012-08-28T20:45:36Z</time>
      </trkpt>
      <trkpt lat="59.9734794" lon="17.7474511">
        <ele>27.0543</ele>
        <time>2012-08-28T20:45:43Z</time>
      </trkpt>
      <trkpt lat="59.9735752" lon="17.7473928">
        <ele>28.0155</ele>
        <time>2012-08-28T20:45:47Z</time>
      </trkpt>
      <trkpt lat="59.9736496" lon="17.7472964">
        <ele>28.0155</ele>
        <time>2012-08-28T20:45:51Z</time>
      </trkpt>
      <trkpt lat="59.973699" lon="17.7472395">
        <ele>27.5349</ele>
        <time>2012-08-28T20:45:54Z</time>
      </trkpt>
      <trkpt lat="59.9737678" lon="17.7471364">
        <ele>25.6123</ele>
        <time>2012-08-28T20:45:59Z</time>
      </trkpt>
      <trkpt lat="59.9739057" lon="17.7469763">
        <ele>23.6896</ele>
        <time>2012-08-28T20:46:06Z</time>
      </trkpt>
      <trkpt lat="59.9740098" lon="17.7468376">
        <ele>25.1317</ele>
        <time>2012-08-28T20:46:11Z</time>
      </trkpt>
      <trkpt lat="59.9741148" lon="17.7467131">
        <ele>26.0929</ele>
        <time>2012-08-28T20:46:16Z</time>
      </trkpt>
      <trkpt lat="59.9742118" lon="17.7465785">
        <ele>27.0543</ele>
        <time>2012-08-28T20:46:21Z</time>
      </trkpt>
      <trkpt lat="59.9742994" lon="17.7464873">
        <ele>27.5349</ele>
        <time>2012-08-28T20:46:25Z</time>
      </trkpt>
      <trkpt lat="59.9743971" lon="17.7463708">
        <ele>28.9769</ele>
        <time>2012-08-28T20:46:30Z</time>
      </trkpt>
      <trkpt lat="59.9745069" lon="17.7461921">
        <ele>29.9381</ele>
        <time>2012-08-28T20:46:36Z</time>
      </trkpt>
      <trkpt lat="59.9745459" lon="17.7461376">
        <ele>29.9381</ele>
        <time>2012-08-28T20:46:38Z</time>
      </trkpt>
      <trkpt lat="59.9746568" lon="17.7459858">
        <ele>31.3801</ele>
        <time>2012-08-28T20:46:44Z</time>
      </trkpt>
      <trkpt lat="59.9747237" lon="17.7457879">
        <ele>32.3416</ele>
        <time>2012-08-28T20:46:49Z</time>
      </trkpt>
      <trkpt lat="59.9748106" lon="17.7456101">
        <ele>32.8223</ele>
        <time>2012-08-28T20:46:54Z</time>
      </trkpt>
      <trkpt lat="59.9748951" lon="17.7454648">
        <ele>33.3029</ele>
        <time>2012-08-28T20:46:59Z</time>
      </trkpt>
      <trkpt lat="59.9749087" lon="17.745425">
        <ele>33.3029</ele>
        <time>2012-08-28T20:47:00Z</time>
      </trkpt>
      <trkpt lat="59.97498" lon="17.7452476">
        <ele>33.3029</ele>
        <time>2012-08-28T20:47:05Z</time>
      </trkpt>
      <trkpt lat="59.975035" lon="17.7450864">
        <ele>32.8223</ele>
        <time>2012-08-28T20:47:09Z</time>
      </trkpt>
      <trkpt lat="59.975048" lon="17.7450435">
        <ele>32.8223</ele>
        <time>2012-08-28T20:47:10Z</time>
      </trkpt>
      <trkpt lat="59.9751059" lon="17.7449">
        <ele>32.3416</ele>
        <time>2012-08-28T20:47:14Z</time>
      </trkpt>
      <trkpt lat="59.9751183" lon="17.7448714">
        <ele>31.8607</ele>
        <time>2012-08-28T20:47:15Z</time>
      </trkpt>
      <trkpt lat="59.9751404" lon="17.7447872">
        <ele>32.8223</ele>
        <time>2012-08-28T20:47:17Z</time>
      </trkpt>
      <trkpt lat="59.9751954" lon="17.744652">
        <ele>33.3029</ele>
        <time>2012-08-28T20:47:21Z</time>
      </trkpt>
      <trkpt lat="59.9752296" lon="17.744449">
        <ele>33.7834</ele>
        <time>2012-08-28T20:47:25Z</time>
      </trkpt>
      <trkpt lat="59.9752816" lon="17.7441792">
        <ele>34.2642</ele>
        <time>2012-08-28T20:47:31Z</time>
      </trkpt>
      <trkpt lat="59.975328" lon="17.7438988">
        <ele>33.7834</ele>
        <time>2012-08-28T20:47:37Z</time>
      </trkpt>
      <trkpt lat="59.9753438" lon="17.7437476">
        <ele>34.2642</ele>
        <time>2012-08-28T20:47:40Z</time>
      </trkpt>
      <trkpt lat="59.9753728" lon="17.7434886">
        <ele>35.7061</ele>
        <time>2012-08-28T20:47:45Z</time>
      </trkpt>
      <trkpt lat="59.9753996" lon="17.7433045">
        <ele>36.6675</ele>
        <time>2012-08-28T20:47:49Z</time>
      </trkpt>
      <trkpt lat="59.975435" lon="17.7431656">
        <ele>35.7061</ele>
        <time>2012-08-28T20:47:52Z</time>
      </trkpt>
      <trkpt lat="59.9754873" lon="17.7429196">
        <ele>34.2642</ele>
        <time>2012-08-28T20:47:57Z</time>
      </trkpt>
      <trkpt lat="59.9755322" lon="17.7427203">
        <ele>32.8223</ele>
        <time>2012-08-28T20:48:01Z</time>
      </trkpt>
      <trkpt lat="59.9755865" lon="17.7425282">
        <ele>31.8607</ele>
        <time>2012-08-28T20:48:06Z</time>
      </trkpt>
      <trkpt lat="59.9756282" lon="17.7423666">
        <ele>30.8995</ele>
        <time>2012-08-28T20:48:10Z</time>
      </trkpt>
      <trkpt lat="59.9756577" lon="17.7422302">
        <ele>30.4188</ele>
        <time>2012-08-28T20:48:13Z</time>
      </trkpt>
      <trkpt lat="59.9757176" lon="17.7420449">
        <ele>28.9769</ele>
        <time>2012-08-28T20:48:18Z</time>
      </trkpt>
      <trkpt lat="59.9757744" lon="17.7418501">
        <ele>28.0155</ele>
        <time>2012-08-28T20:48:23Z</time>
      </trkpt>
      <trkpt lat="59.9758305" lon="17.741647">
        <ele>26.5736</ele>
        <time>2012-08-28T20:48:28Z</time>
      </trkpt>
      <trkpt lat="59.9758741" lon="17.7414818">
        <ele>25.6123</ele>
        <time>2012-08-28T20:48:32Z</time>
      </trkpt>
      <trkpt lat="59.9759389" lon="17.741275">
        <ele>24.651</ele>
        <time>2012-08-28T20:48:38Z</time>
      </trkpt>
      <trkpt lat="59.9759944" lon="17.7410511">
        <ele>24.1703</ele>
        <time>2012-08-28T20:48:43Z</time>
      </trkpt>
      <trkpt lat="59.9760434" lon="17.7408859">
        <ele>24.1703</ele>
        <time>2012-08-28T20:48:47Z</time>
      </trkpt>
      <trkpt lat="59.9760851" lon="17.740718">
        <ele>25.6123</ele>
        <time>2012-08-28T20:48:51Z</time>
      </trkpt>
      <trkpt lat="59.9761419" lon="17.7405395">
        <ele>27.0543</ele>
        <time>2012-08-28T20:48:55Z</time>
      </trkpt>
      <trkpt lat="59.9761997" lon="17.7403572">
        <ele>26.5736</ele>
        <time>2012-08-28T20:48:59Z</time>
      </trkpt>
      <trkpt lat="59.9762176" lon="17.7403188">
        <ele>26.5736</ele>
        <time>2012-08-28T20:49:00Z</time>
      </trkpt>
      <trkpt lat="59.9762787" lon="17.7401624">
        <ele>26.0929</ele>
        <time>2012-08-28T20:49:04Z</time>
      </trkpt>
      <trkpt lat="59.9763544" lon="17.7399947">
        <ele>25.6123</ele>
        <time>2012-08-28T20:49:09Z</time>
      </trkpt>
      <trkpt lat="59.9764169" lon="17.7398217">
        <ele>24.651</ele>
        <time>2012-08-28T20:49:13Z</time>
      </trkpt>
      <trkpt lat="59.9764518" lon="17.7397561">
        <ele>23.6896</ele>
        <time>2012-08-28T20:49:15Z</time>
      </trkpt>
      <trkpt lat="59.9765386" lon="17.7396057">
        <ele>24.1703</ele>
        <time>2012-08-28T20:49:20Z</time>
      </trkpt>
      <trkpt lat="59.97662" lon="17.7395102">
        <ele>24.651</ele>
        <time>2012-08-28T20:49:24Z</time>
      </trkpt>
      <trkpt lat="59.9766682" lon="17.7394775">
        <ele>24.651</ele>
        <time>2012-08-28T20:49:26Z</time>
      </trkpt>
      <trkpt lat="59.9768335" lon="17.7393958">
        <ele>23.6896</ele>
        <time>2012-08-28T20:49:33Z</time>
      </trkpt>
      <trkpt lat="59.976936" lon="17.739346">
        <ele>23.6896</ele>
        <time>2012-08-28T20:49:38Z</time>
      </trkpt>
      <trkpt lat="59.9770749" lon="17.7392745">
        <ele>24.651</ele>
        <time>2012-08-28T20:49:45Z</time>
      </trkpt>
      <trkpt lat="59.9771511" lon="17.7392274">
        <ele>26.0929</ele>
        <time>2012-08-28T20:49:49Z</time>
      </trkpt>
      <trkpt lat="59.9772433" lon="17.7391632">
        <ele>28.0155</ele>
        <time>2012-08-28T20:49:54Z</time>
      </trkpt>
      <trkpt lat="59.9773865" lon="17.739073">
        <ele>31.8607</ele>
        <time>2012-08-28T20:50:01Z</time>
      </trkpt>
      <trkpt lat="59.9775421" lon="17.7389849">
        <ele>36.1868</ele>
        <time>2012-08-28T20:50:08Z</time>
      </trkpt>
      <trkpt lat="59.9776825" lon="17.7389651">
        <ele>38.5901</ele>
        <time>2012-08-28T20:50:14Z</time>
      </trkpt>
      <trkpt lat="59.9777986" lon="17.7389602">
        <ele>40.0321</ele>
        <time>2012-08-28T20:50:19Z</time>
      </trkpt>
      <trkpt lat="59.9779239" lon="17.7390041">
        <ele>40.9934</ele>
        <time>2012-08-28T20:50:25Z</time>
      </trkpt>
      <trkpt lat="59.978046" lon="17.739104">
        <ele>40.9934</ele>
        <time>2012-08-28T20:50:31Z</time>
      </trkpt>
      <trkpt lat="59.9781607" lon="17.7391808">
        <ele>38.5901</ele>
        <time>2012-08-28T20:50:37Z</time>
      </trkpt>
      <trkpt lat="59.978178" lon="17.7391963">
        <ele>38.1094</ele>
        <time>2012-08-28T20:50:38Z</time>
      </trkpt>
      <trkpt lat="59.9782951" lon="17.739247">
        <ele>36.1868</ele>
        <time>2012-08-28T20:50:43Z</time>
      </trkpt>
      <trkpt lat="59.97843" lon="17.7392474">
        <ele>33.7834</ele>
        <time>2012-08-28T20:50:49Z</time>
      </trkpt>
      <trkpt lat="59.9785736" lon="17.7392733">
        <ele>29.9381</ele>
        <time>2012-08-28T20:50:56Z</time>
      </trkpt>
      <trkpt lat="59.978675" lon="17.7392811">
        <ele>27.5349</ele>
        <time>2012-08-28T20:51:00Z</time>
      </trkpt>
      <trkpt lat="59.9787921" lon="17.7392497">
        <ele>25.1317</ele>
        <time>2012-08-28T20:51:05Z</time>
      </trkpt>
      <trkpt lat="59.9788848" lon="17.7392132">
        <ele>24.651</ele>
        <time>2012-08-28T20:51:09Z</time>
      </trkpt>
      <trkpt lat="59.9789097" lon="17.7392061">
        <ele>24.651</ele>
        <time>2012-08-28T20:51:10Z</time>
      </trkpt>
      <trkpt lat="59.9790527" lon="17.7391796">
        <ele>26.5736</ele>
        <time>2012-08-28T20:51:16Z</time>
      </trkpt>
      <trkpt lat="59.9791282" lon="17.7391352">
        <ele>28.0155</ele>
        <time>2012-08-28T20:51:19Z</time>
      </trkpt>
      <trkpt lat="59.9792346" lon="17.7390943">
        <ele>29.4575</ele>
        <time>2012-08-28T20:51:24Z</time>
      </trkpt>
      <trkpt lat="59.9792508" lon="17.7390882">
        <ele>29.4575</ele>
        <time>2012-08-28T20:51:25Z</time>
      </trkpt>
      <trkpt lat="59.9793734" lon="17.7390252">
        <ele>28.9769</ele>
        <time>2012-08-28T20:51:30Z</time>
      </trkpt>
      <trkpt lat="59.9795255" lon="17.7389762">
        <ele>31.3801</ele>
        <time>2012-08-28T20:51:36Z</time>
      </trkpt>
      <trkpt lat="59.9796437" lon="17.7389223">
        <ele>31.3801</ele>
        <time>2012-08-28T20:51:41Z</time>
      </trkpt>
      <trkpt lat="59.9797477" lon="17.7388249">
        <ele>29.9381</ele>
        <time>2012-08-28T20:51:46Z</time>
      </trkpt>
      <trkpt lat="59.979881" lon="17.7387881">
        <ele>28.0155</ele>
        <time>2012-08-28T20:51:53Z</time>
      </trkpt>
      <trkpt lat="59.979988" lon="17.7387566">
        <ele>26.0929</ele>
        <time>2012-08-28T20:51:58Z</time>
      </trkpt>
      <trkpt lat="59.9801057" lon="17.7387259">
        <ele>25.6123</ele>
        <time>2012-08-28T20:52:03Z</time>
      </trkpt>
      <trkpt lat="59.9802285" lon="17.7387336">
        <ele>30.4188</ele>
        <time>2012-08-28T20:52:08Z</time>
      </trkpt>
      <trkpt lat="59.9803552" lon="17.7387451">
        <ele>35.2255</ele>
        <time>2012-08-28T20:52:13Z</time>
      </trkpt>
      <trkpt lat="59.980451" lon="17.7387295">
        <ele>35.2255</ele>
        <time>2012-08-28T20:52:17Z</time>
      </trkpt>
      <trkpt lat="59.9806175" lon="17.7386829">
        <ele>34.7449</ele>
        <time>2012-08-28T20:52:24Z</time>
      </trkpt>
      <trkpt lat="59.9807501" lon="17.7386219">
        <ele>33.7834</ele>
        <time>2012-08-28T20:52:30Z</time>
      </trkpt>
      <trkpt lat="59.9807864" lon="17.7386067">
        <ele>33.7834</ele>
        <time>2012-08-28T20:52:32Z</time>
      </trkpt>
      <trkpt lat="59.9809093" lon="17.7385763">
        <ele>35.2255</ele>
        <time>2012-08-28T20:52:38Z</time>
      </trkpt>
      <trkpt lat="59.9810112" lon="17.7385612">
        <ele>35.2255</ele>
        <time>2012-08-28T20:52:43Z</time>
      </trkpt>
      <trkpt lat="59.9811588" lon="17.7385027">
        <ele>35.2255</ele>
        <time>2012-08-28T20:52:49Z</time>
      </trkpt>
      <trkpt lat="59.9812729" lon="17.7384678">
        <ele>35.2255</ele>
        <time>2012-08-28T20:52:54Z</time>
      </trkpt>
      <trkpt lat="59.9813938" lon="17.7384394">
        <ele>34.7449</ele>
        <time>2012-08-28T20:52:58Z</time>
      </trkpt>
      <trkpt lat="59.9814173" lon="17.7384313">
        <ele>35.7061</ele>
        <time>2012-08-28T20:52:59Z</time>
      </trkpt>
      <trkpt lat="59.981522" lon="17.7383852">
        <ele>35.2255</ele>
        <time>2012-08-28T20:53:04Z</time>
      </trkpt>
      <trkpt lat="59.9816628" lon="17.7383344">
        <ele>36.1868</ele>
        <time>2012-08-28T20:53:10Z</time>
      </trkpt>
      <trkpt lat="59.981724" lon="17.7383126">
        <ele>37.1481</ele>
        <time>2012-08-28T20:53:13Z</time>
      </trkpt>
      <trkpt lat="59.9817448" lon="17.7383262">
        <ele>38.1094</ele>
        <time>2012-08-28T20:53:14Z</time>
      </trkpt>
      <trkpt lat="59.9817152" lon="17.7383908">
        <ele>38.5901</ele>
        <time>2012-08-28T20:53:18Z</time>
      </trkpt>
      <trkpt lat="59.9816184" lon="17.7384145">
        <ele>39.0707</ele>
        <time>2012-08-28T20:53:23Z</time>
      </trkpt>
      <trkpt lat="59.9815539" lon="17.7384245">
        <ele>38.5901</ele>
        <time>2012-08-28T20:53:26Z</time>
      </trkpt>
      <trkpt lat="59.9814386" lon="17.7384223">
        <ele>37.6287</ele>
        <time>2012-08-28T20:53:32Z</time>
      </trkpt>
      <trkpt lat="59.9813055" lon="17.738454">
        <ele>39.0707</ele>
        <time>2012-08-28T20:53:38Z</time>
      </trkpt>
      <trkpt lat="59.9812018" lon="17.7384758">
        <ele>40.0321</ele>
        <time>2012-08-28T20:53:42Z</time>
      </trkpt>
      <trkpt lat="59.9811817" lon="17.7384714">
        <ele>39.5513</ele>
        <time>2012-08-28T20:53:43Z</time>
      </trkpt>
      <trkpt lat="59.9810692" lon="17.738528">
        <ele>38.5901</ele>
        <time>2012-08-28T20:53:47Z</time>
      </trkpt>
      <trkpt lat="59.9809347" lon="17.7386066">
        <ele>38.1094</ele>
        <time>2012-08-28T20:53:52Z</time>
      </trkpt>
      <trkpt lat="59.9808847" lon="17.7386259">
        <ele>37.1481</ele>
        <time>2012-08-28T20:53:54Z</time>
      </trkpt>
      <trkpt lat="59.9808205" lon="17.738631">
        <ele>37.1481</ele>
        <time>2012-08-28T20:53:57Z</time>
      </trkpt>
      <trkpt lat="59.9806869" lon="17.738639">
        <ele>36.1868</ele>
        <time>2012-08-28T20:54:03Z</time>
      </trkpt>
      <trkpt lat="59.98058" lon="17.7386765">
        <ele>35.2255</ele>
        <time>2012-08-28T20:54:08Z</time>
      </trkpt>
      <trkpt lat="59.98052" lon="17.73867">
        <ele>34.2642</ele>
        <time>2012-08-28T20:54:11Z</time>
      </trkpt>
      <trkpt lat="59.9803949" lon="17.7386959">
        <ele>34.2642</ele>
        <time>2012-08-28T20:54:16Z</time>
      </trkpt>
      <trkpt lat="59.980286" lon="17.7387121">
        <ele>34.7449</ele>
        <time>2012-08-28T20:54:21Z</time>
      </trkpt>
      <trkpt lat="59.9801354" lon="17.7387208">
        <ele>34.2642</ele>
        <time>2012-08-28T20:54:27Z</time>
      </trkpt>
      <trkpt lat="59.9800001" lon="17.7387326">
        <ele>33.3029</ele>
        <time>2012-08-28T20:54:32Z</time>
      </trkpt>
      <trkpt lat="59.9798865" lon="17.7387437">
        <ele>33.3029</ele>
        <time>2012-08-28T20:54:37Z</time>
      </trkpt>
      <trkpt lat="59.9797688" lon="17.7387679">
        <ele>33.3029</ele>
        <time>2012-08-28T20:54:42Z</time>
      </trkpt>
      <trkpt lat="59.979624" lon="17.7388186">
        <ele>32.8223</ele>
        <time>2012-08-28T20:54:49Z</time>
      </trkpt>
      <trkpt lat="59.9796091" lon="17.7388143">
        <ele>32.3416</ele>
        <time>2012-08-28T20:54:50Z</time>
      </trkpt>
      <trkpt lat="59.9794549" lon="17.73891">
        <ele>31.3801</ele>
        <time>2012-08-28T20:54:57Z</time>
      </trkpt>
      <trkpt lat="59.9793924" lon="17.7389688">
        <ele>30.4188</ele>
        <time>2012-08-28T20:55:00Z</time>
      </trkpt>
      <trkpt lat="59.9792552" lon="17.7390646">
        <ele>31.8607</ele>
        <time>2012-08-28T20:55:06Z</time>
      </trkpt>
      <trkpt lat="59.9790925" lon="17.7391689">
        <ele>34.2642</ele>
        <time>2012-08-28T20:55:12Z</time>
      </trkpt>
      <trkpt lat="59.9789438" lon="17.7392559">
        <ele>35.2255</ele>
        <time>2012-08-28T20:55:18Z</time>
      </trkpt>
      <trkpt lat="59.9788832" lon="17.7394766">
        <ele>37.1481</ele>
        <time>2012-08-28T20:55:23Z</time>
      </trkpt>
      <trkpt lat="59.9788201" lon="17.739647">
        <ele>38.5901</ele>
        <time>2012-08-28T20:55:27Z</time>
      </trkpt>
      <trkpt lat="59.9788005" lon="17.7396745">
        <ele>38.5901</ele>
        <time>2012-08-28T20:55:28Z</time>
      </trkpt>
      <trkpt lat="59.9787872" lon="17.7398495">
        <ele>39.0707</ele>
        <time>2012-08-28T20:55:32Z</time>
      </trkpt>
      <trkpt lat="59.9788002" lon="17.7399268">
        <ele>38.1094</ele>
        <time>2012-08-28T20:55:34Z</time>
      </trkpt>
    </trkseg>
  </trk>
</gpx>